Time;durP1;ratioP1;P1;durP2;ratioP2;P2;SDS_P1;SDS_P2;PMS_P1;PMS_P2;Temp;Humidity;BMP_temperature;BMP_pressure;BME280_temperature;BME280_humidity;BME280_pressure;Samples;Min_cycle;Max_cycle;Signal;HPM_P1;HPM_P2
2023/05/21 00:00:24;;;;;;;12.32;7.28;;;;;;;;;;5069083;28;20040;-60
2023/05/21 00:02:50;;;;;;;10.65;7.30;;;;;;;;;;5069123;28;20036;-59
2023/05/21 00:05:17;;;;;;;9.88;7.25;;;;;;;;;;5066698;28;20117;-59
2023/05/21 00:07:43;;;;;;;11.27;7.50;;;;;;;;;;5071538;28;20142;-60
2023/05/21 00:10:09;;;;;;;11.15;6.75;;;;;;;;;;5068660;28;20094;-59
2023/05/21 00:12:34;;;;;;;8.75;6.70;;;;;;;;;;5065128;28;20032;-59
2023/05/21 00:15:00;;;;;;;10.63;6.70;;;;;;;;;;5067221;28;20040;-60
2023/05/21 00:17:26;;;;;;;12.50;6.85;;;;;;;;;;5070069;28;20367;-60
2023/05/21 00:19:51;;;;;;;9.98;6.50;;;;;;;;;;5072043;28;20032;-59
2023/05/21 00:22:17;;;;;;;10.98;6.80;;;;;;;;;;5065827;28;20469;-59
2023/05/21 00:24:44;;;;;;;10.77;6.50;;;;;;;;;;5060356;28;20037;-59
2023/05/21 00:27:11;;;;;;;10.13;6.35;;;;;;;;;;5055892;28;20508;-59
2023/05/21 00:29:36;;;;;;;8.75;6.40;;;;;;;;;;5070343;28;20062;-59
2023/05/21 00:32:02;;;;;;;8.57;6.07;;;;;;;;;;5072524;28;20024;-60
2023/05/21 00:34:28;;;;;;;11.20;6.68;;;;;;;;;;5072627;28;20082;-59
2023/05/21 00:36:54;;;;;;;8.88;6.63;;;;;;;;;;5073281;28;20460;-59
2023/05/21 00:39:20;;;;;;;11.90;6.32;;;;;;;;;;5070635;28;20111;-59
2023/05/21 00:41:47;;;;;;;9.30;6.55;;;;;;;;;;5066446;28;20039;-59
2023/05/21 00:44:13;;;;;;;9.63;6.88;;;;;;;;;;5068127;28;20036;-59
2023/05/21 00:46:40;;;;;;;8.73;6.13;;;;;;;;;;5070732;28;20052;-59
2023/05/21 00:49:05;;;;;;;9.43;6.35;;;;;;;;;;5071360;28;20036;-59
2023/05/21 00:51:31;;;;;;;9.82;6.43;;;;;;;;;;5071345;28;20047;-59
2023/05/21 00:53:57;;;;;;;8.48;6.47;;;;;;;;;;5060234;28;20032;-59
2023/05/21 00:56:25;;;;;;;9.35;6.50;;;;;;;;;;5069120;28;20540;-59
2023/05/21 00:58:51;;;;;;;11.63;6.70;;;;;;;;;;5064970;28;21051;-59
2023/05/21 01:01:17;;;;;;;9.45;6.97;;;;;;;;;;5057483;28;20115;-59
2023/05/21 01:03:43;;;;;;;13.85;7.00;;;;;;;;;;5064883;28;20028;-59
2023/05/21 01:06:09;;;;;;;10.00;6.20;;;;;;;;;;5055990;28;20120;-59
2023/05/21 01:08:36;;;;;;;10.65;6.15;;;;;;;;;;5054202;28;20060;-61
2023/05/21 01:11:03;;;;;;;10.55;6.70;;;;;;;;;;5068001;28;20039;-60
2023/05/21 01:13:30;;;;;;;10.90;6.43;;;;;;;;;;5064579;28;20029;-60
2023/05/21 01:15:57;;;;;;;11.45;6.35;;;;;;;;;;5062598;28;20032;-60
2023/05/21 01:18:23;;;;;;;10.05;6.43;;;;;;;;;;5061635;28;20036;-61
2023/05/21 01:20:49;;;;;;;9.75;6.38;;;;;;;;;;5058503;28;20032;-61
2023/05/21 01:23:18;;;;;;;9.63;6.57;;;;;;;;;;5064115;28;20512;-60
2023/05/21 01:25:44;;;;;;;8.10;6.32;;;;;;;;;;5066711;28;20029;-60
2023/05/21 01:28:10;;;;;;;9.98;7.10;;;;;;;;;;5068042;28;20035;-60
2023/05/21 01:30:38;;;;;;;8.75;6.68;;;;;;;;;;5070852;28;20037;-60
2023/05/21 01:33:14;;;;;;;9.18;6.53;;;;;;;;;;5064534;28;20033;-61
2023/05/21 01:35:55;;;;;;;10.50;6.38;;;;;;;;;;5052939;28;20112;-61
2023/05/21 01:38:32;;;;;;;10.85;6.50;;;;;;;;;;5055665;28;20063;-60
2023/05/21 01:41:02;;;;;;;7.78;6.00;;;;;;;;;;5066165;28;20045;-60
2023/05/21 01:43:33;;;;;;;9.20;6.43;;;;;;;;;;5060642;28;20025;-60
2023/05/21 01:46:00;;;;;;;14.25;6.95;;;;;;;;;;5052536;28;20417;-60
2023/05/21 01:48:29;;;;;;;9.13;6.63;;;;;;;;;;5058972;28;20035;-59
2023/05/21 01:50:58;;;;;;;9.77;6.90;;;;;;;;;;5067958;28;20694;-59
2023/05/21 01:53:24;;;;;;;9.88;6.88;;;;;;;;;;5062803;28;20040;-59
2023/05/21 01:55:49;;;;;;;10.43;6.93;;;;;;;;;;5065165;28;20047;-59
2023/05/21 01:58:15;;;;;;;8.80;6.75;;;;;;;;;;5062945;28;20441;-59
2023/05/21 02:00:41;;;;;;;9.95;6.80;;;;;;;;;;5065041;28;20078;-60
2023/05/21 02:03:07;;;;;;;10.50;6.65;;;;;;;;;;5071380;28;20432;-59
2023/05/21 02:05:33;;;;;;;10.85;6.88;;;;;;;;;;5069011;28;20028;-59
2023/05/21 02:07:58;;;;;;;9.20;6.70;;;;;;;;;;5069312;28;20058;-59
2023/05/21 02:10:24;;;;;;;9.65;6.65;;;;;;;;;;5067101;28;20028;-59
2023/05/21 02:12:50;;;;;;;10.20;6.75;;;;;;;;;;5068071;28;20542;-59
2023/05/21 02:15:18;;;;;;;10.25;7.57;;;;;;;;;;5063813;28;20024;-60
2023/05/21 02:17:45;;;;;;;9.48;6.75;;;;;;;;;;5065253;28;20451;-60
2023/05/21 02:20:11;;;;;;;9.95;7.05;;;;;;;;;;5064105;28;20140;-59
2023/05/21 02:22:42;;;;;;;10.60;7.35;;;;;;;;;;5066129;28;20491;-60
2023/05/21 02:25:08;;;;;;;11.38;6.95;;;;;;;;;;5064340;28;20037;-60
2023/05/21 02:27:38;;;;;;;10.82;7.47;;;;;;;;;;5064807;28;20037;-60
2023/05/21 02:30:14;;;;;;;11.73;7.82;;;;;;;;;;5069400;28;20047;-60
2023/05/21 02:32:41;;;;;;;9.18;7.03;;;;;;;;;;5067255;28;20035;-60
2023/05/21 02:35:07;;;;;;;11.98;7.50;;;;;;;;;;5068637;28;20043;-60
2023/05/21 02:37:34;;;;;;;10.18;7.13;;;;;;;;;;5068436;28;20041;-60
2023/05/21 02:40:00;;;;;;;9.45;7.10;;;;;;;;;;5066423;28;20041;-60
2023/05/21 02:42:26;;;;;;;10.27;7.20;;;;;;;;;;5057790;28;20033;-60
2023/05/21 02:44:52;;;;;;;11.15;7.35;;;;;;;;;;5067842;28;20037;-60
2023/05/21 02:47:18;;;;;;;10.50;7.20;;;;;;;;;;5064838;28;20369;-60
2023/05/21 02:49:45;;;;;;;10.88;7.28;;;;;;;;;;5069142;28;20111;-60
2023/05/21 02:52:10;;;;;;;8.98;7.20;;;;;;;;;;5068860;28;20045;-60
2023/05/21 02:54:35;;;;;;;9.90;7.20;;;;;;;;;;5066262;28;20345;-60
2023/05/21 02:57:01;;;;;;;10.70;7.70;;;;;;;;;;5066914;28;20036;-60
2023/05/21 02:59:26;;;;;;;9.95;7.40;;;;;;;;;;5066854;28;20460;-60
2023/05/21 03:01:52;;;;;;;9.32;7.50;;;;;;;;;;5067586;28;20048;-60
2023/05/21 03:04:17;;;;;;;10.85;7.68;;;;;;;;;;5066933;28;20025;-60
2023/05/21 03:06:43;;;;;;;11.10;7.55;;;;;;;;;;5065107;28;20044;-59
2023/05/21 03:09:09;;;;;;;10.40;7.63;;;;;;;;;;5062578;28;20120;-60
2023/05/21 03:11:35;;;;;;;10.93;7.65;;;;;;;;;;5068451;28;20401;-60
2023/05/21 03:14:00;;;;;;;12.43;7.85;;;;;;;;;;5066984;28;20086;-60
2023/05/21 03:16:27;;;;;;;10.80;7.95;;;;;;;;;;5064305;28;20029;-60
2023/05/21 03:18:52;;;;;;;11.40;7.70;;;;;;;;;;5063369;28;20036;-60
2023/05/21 03:21:21;;;;;;;10.77;7.57;;;;;;;;;;5070087;28;20396;-60
2023/05/21 03:23:47;;;;;;;10.18;7.72;;;;;;;;;;5067879;28;20036;-60
2023/05/21 03:26:13;;;;;;;10.88;7.88;;;;;;;;;;5068121;28;20050;-60
2023/05/21 03:28:38;;;;;;;9.65;7.30;;;;;;;;;;5071858;28;20123;-60
2023/05/21 03:31:03;;;;;;;10.88;7.75;;;;;;;;;;5071855;28;20392;-60
2023/05/21 03:33:29;;;;;;;11.38;7.30;;;;;;;;;;5071921;28;20107;-60
2023/05/21 03:35:54;;;;;;;10.13;7.63;;;;;;;;;;5071016;28;20074;-60
2023/05/21 03:38:20;;;;;;;11.57;8.15;;;;;;;;;;5069654;28;20025;-60
2023/05/21 03:40:45;;;;;;;12.95;8.02;;;;;;;;;;5072338;28;20040;-60
2023/05/21 03:43:11;;;;;;;9.48;7.32;;;;;;;;;;5068696;28;20040;-60
2023/05/21 03:45:36;;;;;;;11.45;8.35;;;;;;;;;;5068461;28;20374;-60
2023/05/21 03:48:02;;;;;;;12.20;8.25;;;;;;;;;;5070523;28;20040;-60
2023/05/21 03:50:27;;;;;;;10.85;7.95;;;;;;;;;;5071317;28;20032;-60
2023/05/21 03:52:52;;;;;;;12.55;8.23;;;;;;;;;;5070810;28;20032;-60
2023/05/21 03:55:18;;;;;;;12.32;8.30;;;;;;;;;;5070552;28;20020;-60
2023/05/21 03:57:43;;;;;;;11.95;7.65;;;;;;;;;;5070047;28;20060;-60
2023/05/21 04:00:09;;;;;;;11.15;8.13;;;;;;;;;;5072275;28;20043;-60
2023/05/21 04:02:34;;;;;;;13.75;8.15;;;;;;;;;;5073045;28;20067;-60
2023/05/21 04:05:00;;;;;;;11.23;8.15;;;;;;;;;;5074167;28;20095;-60
2023/05/21 04:07:26;;;;;;;12.52;8.18;;;;;;;;;;5060470;28;20033;-60
2023/05/21 04:09:52;;;;;;;12.57;8.35;;;;;;;;;;5073608;28;20453;-60
2023/05/21 04:12:18;;;;;;;11.70;7.70;;;;;;;;;;5072570;28;20056;-60
2023/05/21 04:14:45;;;;;;;10.68;7.78;;;;;;;;;;5074276;28;20048;-61
2023/05/21 04:17:14;;;;;;;10.55;7.97;;;;;;;;;;5073799;28;20116;-60
2023/05/21 04:19:39;;;;;;;11.38;8.15;;;;;;;;;;5073208;28;20086;-60
2023/05/21 04:22:05;;;;;;;10.85;7.93;;;;;;;;;;5072572;28;20040;-60
2023/05/21 04:24:30;;;;;;;10.35;7.72;;;;;;;;;;5072339;28;20033;-61
2023/05/21 04:27:00;;;;;;;13.00;8.00;;;;;;;;;;5053812;28;20036;-60
2023/05/21 04:29:28;;;;;;;12.27;8.23;;;;;;;;;;5065786;28;20037;-60
2023/05/21 04:31:54;;;;;;;9.80;7.38;;;;;;;;;;5073631;28;20031;-60
2023/05/21 04:34:20;;;;;;;9.93;7.45;;;;;;;;;;5072871;28;20020;-60
2023/05/21 04:36:46;;;;;;;11.50;7.80;;;;;;;;;;5073386;28;20033;-61
2023/05/21 04:39:11;;;;;;;11.15;7.68;;;;;;;;;;5072501;28;20037;-60
2023/05/21 04:41:38;;;;;;;11.45;8.18;;;;;;;;;;5071689;28;20029;-60
2023/05/21 04:44:06;;;;;;;11.75;8.00;;;;;;;;;;5053570;28;20032;-60
2023/05/21 04:46:33;;;;;;;11.18;8.40;;;;;;;;;;5066246;28;20039;-60
2023/05/21 04:49:01;;;;;;;11.15;8.20;;;;;;;;;;5073450;28;20123;-61
2023/05/21 04:51:27;;;;;;;11.07;7.88;;;;;;;;;;5072771;28;20115;-61
2023/05/21 04:53:53;;;;;;;10.40;7.47;;;;;;;;;;5065695;28;20135;-60
2023/05/21 04:56:20;;;;;;;10.45;8.02;;;;;;;;;;5070403;28;20036;-60
2023/05/21 04:58:46;;;;;;;10.60;8.00;;;;;;;;;;5066165;28;20060;-60
2023/05/21 05:01:12;;;;;;;10.48;7.97;;;;;;;;;;5068619;28;20465;-60
2023/05/21 05:03:38;;;;;;;11.52;7.80;;;;;;;;;;5069458;28;20028;-60
2023/05/21 05:06:03;;;;;;;12.55;7.97;;;;;;;;;;5066892;28;20036;-60
2023/05/21 05:08:29;;;;;;;12.63;7.93;;;;;;;;;;5066145;28;20025;-60
2023/05/21 05:10:55;;;;;;;11.82;7.95;;;;;;;;;;5070170;28;20034;-60
2023/05/21 05:13:20;;;;;;;12.23;8.73;;;;;;;;;;5066298;28;20029;-60
2023/05/21 05:15:46;;;;;;;13.25;8.07;;;;;;;;;;5065536;28;20020;-60
2023/05/21 05:18:11;;;;;;;11.32;8.15;;;;;;;;;;5051140;28;20481;-60
2023/05/21 05:20:37;;;;;;;11.75;7.88;;;;;;;;;;5068652;28;20032;-60
2023/05/21 05:23:02;;;;;;;11.88;8.10;;;;;;;;;;5072692;28;20469;-60
2023/05/21 05:25:28;;;;;;;11.30;8.10;;;;;;;;;;5067012;28;20051;-60
2023/05/21 05:27:53;;;;;;;11.40;7.78;;;;;;;;;;5068561;28;20028;-60
2023/05/21 05:30:19;;;;;;;11.57;8.15;;;;;;;;;;5067455;28;20036;-60
2023/05/21 05:32:45;;;;;;;10.25;8.02;;;;;;;;;;5062424;28;20040;-60
2023/05/21 05:35:11;;;;;;;14.38;8.70;;;;;;;;;;5062451;28;20409;-60
2023/05/21 05:37:37;;;;;;;12.95;8.32;;;;;;;;;;5065874;28;20025;-60
2023/05/21 05:40:03;;;;;;;10.40;7.93;;;;;;;;;;5071863;28;20084;-60
2023/05/21 05:42:28;;;;;;;11.45;8.25;;;;;;;;;;5070253;28;20153;-60
2023/05/21 05:44:54;;;;;;;11.15;7.57;;;;;;;;;;5072330;28;20111;-60
2023/05/21 05:47:20;;;;;;;11.90;8.25;;;;;;;;;;5070274;28;20029;-61
2023/05/21 05:49:46;;;;;;;12.88;7.97;;;;;;;;;;5068892;28;20028;-59
2023/05/21 05:52:11;;;;;;;11.55;7.88;;;;;;;;;;5069781;28;20110;-59
2023/05/21 05:54:37;;;;;;;13.05;8.38;;;;;;;;;;5070967;28;20024;-59
2023/05/21 05:57:03;;;;;;;13.07;8.82;;;;;;;;;;5070859;28;20050;-60
2023/05/21 05:59:28;;;;;;;12.23;8.68;;;;;;;;;;5070997;28;20028;-60
2023/05/21 06:01:53;;;;;;;13.63;7.90;;;;;;;;;;5082021;28;20042;-59
2023/05/21 06:04:19;;;;;;;11.00;8.50;;;;;;;;;;5091941;28;20028;-61
2023/05/21 06:06:44;;;;;;;10.95;8.23;;;;;;;;;;5086936;28;20082;-58
2023/05/21 06:09:10;;;;;;;9.65;7.55;;;;;;;;;;5055014;28;20062;-59
2023/05/21 06:11:36;;;;;;;11.48;8.27;;;;;;;;;;5070954;28;20021;-57
2023/05/21 06:14:01;;;;;;;9.70;7.70;;;;;;;;;;5083264;28;20392;-58
2023/05/21 06:16:30;;;;;;;10.40;7.97;;;;;;;;;;5091459;28;20460;-58
2023/05/21 06:18:56;;;;;;;11.35;8.38;;;;;;;;;;5091352;28;20032;-57
2023/05/21 06:21:21;;;;;;;11.57;8.35;;;;;;;;;;5091732;28;20112;-59
2023/05/21 06:23:47;;;;;;;11.10;8.13;;;;;;;;;;5086179;28;20064;-56
2023/05/21 06:26:12;;;;;;;11.07;8.02;;;;;;;;;;5064267;28;20123;-58
2023/05/21 06:28:37;;;;;;;10.20;8.10;;;;;;;;;;5068537;28;20025;-59
2023/05/21 06:31:03;;;;;;;12.35;8.40;;;;;;;;;;5069263;28;20556;-58
2023/05/21 06:33:28;;;;;;;10.95;8.38;;;;;;;;;;5068250;28;20392;-59
2023/05/21 06:35:54;;;;;;;11.48;8.57;;;;;;;;;;5062419;28;20036;-58
2023/05/21 06:38:19;;;;;;;10.75;8.25;;;;;;;;;;5051253;28;20393;-59
2023/05/21 06:40:46;;;;;;;13.45;8.75;;;;;;;;;;5051800;28;20390;-58
2023/05/21 06:43:12;;;;;;;11.13;8.40;;;;;;;;;;5060476;28;20427;-59
2023/05/21 06:45:38;;;;;;;11.70;8.38;;;;;;;;;;5066524;28;20037;-59
2023/05/21 06:48:03;;;;;;;11.63;8.93;;;;;;;;;;5069415;28;20032;-59
2023/05/21 06:50:29;;;;;;;12.20;9.20;;;;;;;;;;5070248;28;20032;-60
2023/05/21 06:52:54;;;;;;;11.25;8.70;;;;;;;;;;5068342;28;20040;-59
2023/05/21 06:55:20;;;;;;;12.20;8.52;;;;;;;;;;5071351;28;20103;-58
2023/05/21 06:57:45;;;;;;;11.60;8.57;;;;;;;;;;5069731;28;20028;-59
2023/05/21 07:00:11;;;;;;;10.32;8.38;;;;;;;;;;5070242;28;20031;-58
2023/05/21 07:02:37;;;;;;;13.45;8.57;;;;;;;;;;5073243;28;20083;-59
2023/05/21 07:05:02;;;;;;;12.90;8.80;;;;;;;;;;5075341;28;20052;-58
2023/05/21 07:07:27;;;;;;;11.02;8.23;;;;;;;;;;5060718;28;20393;-59
2023/05/21 07:09:53;;;;;;;11.50;8.25;;;;;;;;;;5069932;28;20028;-58
2023/05/21 07:12:18;;;;;;;11.77;8.38;;;;;;;;;;5073486;28;20029;-60
2023/05/21 07:14:43;;;;;;;13.02;8.70;;;;;;;;;;5074152;28;20480;-58
2023/05/21 07:17:09;;;;;;;12.55;8.80;;;;;;;;;;5074670;28;20036;-58
2023/05/21 07:19:35;;;;;;;11.35;8.65;;;;;;;;;;5067082;28;20024;-59
2023/05/21 07:22:01;;;;;;;11.20;8.35;;;;;;;;;;5073654;28;20029;-59
2023/05/21 07:24:26;;;;;;;12.93;9.20;;;;;;;;;;5074327;28;20485;-60
2023/05/21 07:26:52;;;;;;;11.15;8.77;;;;;;;;;;5074569;28;20060;-58
2023/05/21 07:29:17;;;;;;;12.05;8.13;;;;;;;;;;5074735;28;20032;-58
2023/05/21 07:31:42;;;;;;;12.73;8.73;;;;;;;;;;5071333;28;20029;-59
2023/05/21 07:34:08;;;;;;;11.63;8.50;;;;;;;;;;5057008;28;20473;-59
2023/05/21 07:36:33;;;;;;;11.95;8.55;;;;;;;;;;5072499;28;20032;-57
2023/05/21 07:38:59;;;;;;;12.77;9.05;;;;;;;;;;5089928;28;20033;-58
2023/05/21 07:41:25;;;;;;;12.23;8.60;;;;;;;;;;5066619;28;20036;-60
2023/05/21 07:43:50;;;;;;;10.25;8.65;;;;;;;;;;5073780;28;20111;-60
2023/05/21 07:46:16;;;;;;;11.63;8.60;;;;;;;;;;5069418;28;20024;-60
2023/05/21 07:48:42;;;;;;;11.15;9.15;;;;;;;;;;5073086;28;20040;-59
2023/05/21 07:51:08;;;;;;;11.00;8.88;;;;;;;;;;5073707;28;20040;-58
2023/05/21 07:53:34;;;;;;;12.98;9.13;;;;;;;;;;5072612;28;20032;-59
2023/05/21 07:55:59;;;;;;;13.25;8.95;;;;;;;;;;5074290;28;20032;-58
2023/05/21 07:58:25;;;;;;;12.55;9.18;;;;;;;;;;5074144;28;20115;-58
2023/05/21 08:00:50;;;;;;;15.52;8.73;;;;;;;;;;5072998;28;20112;-58
2023/05/21 08:03:18;;;;;;;14.35;9.18;;;;;;;;;;5074240;28;20056;-59
2023/05/21 08:05:47;;;;;;;11.23;9.07;;;;;;;;;;5074692;28;20388;-58
2023/05/21 08:08:19;;;;;;;12.32;8.63;;;;;;;;;;5059759;28;20433;-59
2023/05/21 08:10:45;;;;;;;11.93;9.88;;;;;;;;;;5068283;28;20492;-59
2023/05/21 08:13:11;;;;;;;11.13;8.93;;;;;;;;;;5073500;28;20040;-58
2023/05/21 08:15:36;;;;;;;11.88;8.98;;;;;;;;;;5073019;28;20036;-60
2023/05/21 08:18:02;;;;;;;13.30;8.70;;;;;;;;;;5073823;28;20082;-59
2023/05/21 08:20:29;;;;;;;12.45;8.88;;;;;;;;;;5072103;28;20033;-61
2023/05/21 08:22:55;;;;;;;14.00;9.57;;;;;;;;;;5070106;28;20037;-59
2023/05/21 08:25:20;;;;;;;12.35;9.82;;;;;;;;;;5053574;28;20024;-59
2023/05/21 08:27:46;;;;;;;14.10;9.30;;;;;;;;;;5069666;28;20535;-59
2023/05/21 08:30:11;;;;;;;13.13;9.60;;;;;;;;;;5073744;28;20024;-59
2023/05/21 08:32:37;;;;;;;13.27;10.18;;;;;;;;;;5072846;28;20033;-58
2023/05/21 08:35:02;;;;;;;12.30;9.48;;;;;;;;;;5072962;28;20037;-59
2023/05/21 08:37:28;;;;;;;11.93;9.05;;;;;;;;;;5073327;28;20032;-60
2023/05/21 08:39:53;;;;;;;10.88;8.90;;;;;;;;;;5072553;28;20056;-59
2023/05/21 08:42:31;;;;;;;11.60;9.30;;;;;;;;;;5073189;28;20028;-59
2023/05/21 08:44:59;;;;;;;12.90;9.23;;;;;;;;;;5072910;28;20040;-62
2023/05/21 08:47:26;;;;;;;12.52;9.50;;;;;;;;;;5073283;28;20390;-61
2023/05/21 08:49:53;;;;;;;12.75;10.15;;;;;;;;;;5068611;28;20032;-61
2023/05/21 08:52:20;;;;;;;11.23;9.65;;;;;;;;;;5073147;28;20036;-61
2023/05/21 08:54:46;;;;;;;13.82;10.30;;;;;;;;;;5071054;28;20479;-60
2023/05/21 08:57:14;;;;;;;15.50;9.75;;;;;;;;;;5065970;28;20033;-61
2023/05/21 08:59:43;;;;;;;12.27;10.07;;;;;;;;;;5052462;28;20036;-60
2023/05/21 09:02:12;;;;;;;12.63;9.90;;;;;;;;;;5053021;28;20036;-61
2023/05/21 09:04:41;;;;;;;15.77;10.45;;;;;;;;;;5052010;28;20025;-60
2023/05/21 09:07:08;;;;;;;12.75;9.25;;;;;;;;;;5052919;28;20025;-60
2023/05/21 09:10:15;;;;;;;12.65;10.18;;;;;;;;;;5050718;28;20029;-60
2023/05/21 09:12:40;;;;;;;13.70;10.48;;;;;;;;;;4994211;28;20043;-60
2023/05/21 09:15:06;;;;;;;12.50;10.15;;;;;;;;;;5039694;28;20037;-62
2023/05/21 09:17:32;;;;;;;11.48;9.52;;;;;;;;;;5052195;28;20111;-60
2023/05/21 09:20:11;;;;;;;13.32;10.13;;;;;;;;;;5051989;28;20488;-61
2023/05/21 09:22:46;;;;;;;13.73;9.63;;;;;;;;;;5052172;28;20404;-60
2023/05/21 09:25:14;;;;;;;13.30;10.02;;;;;;;;;;5069433;28;20028;-61
2023/05/21 09:27:40;;;;;;;15.18;9.95;;;;;;;;;;5070395;28;20033;-61
2023/05/21 09:30:13;;;;;;;12.90;10.55;;;;;;;;;;5072426;28;20024;-62
2023/05/21 09:32:40;;;;;;;12.57;10.05;;;;;;;;;;5071498;28;20029;-61
2023/05/21 09:35:14;;;;;;;12.98;10.25;;;;;;;;;;5072513;28;20024;-62
2023/05/21 09:37:43;;;;;;;13.32;10.57;;;;;;;;;;5071613;28;20054;-61
2023/05/21 09:40:16;;;;;;;16.02;10.50;;;;;;;;;;5069603;28;20055;-61
2023/05/21 09:42:50;;;;;;;13.52;10.50;;;;;;;;;;5071432;28;20074;-61
2023/05/21 09:45:20;;;;;;;13.52;9.98;;;;;;;;;;5070990;28;20039;-61
2023/05/21 09:47:47;;;;;;;13.57;10.52;;;;;;;;;;5071216;28;20035;-61
2023/05/21 09:50:17;;;;;;;15.80;10.20;;;;;;;;;;5071853;28;20161;-61
2023/05/21 09:52:43;;;;;;;15.02;10.10;;;;;;;;;;5071299;28;20028;-61
2023/05/21 09:55:13;;;;;;;15.70;10.65;;;;;;;;;;5069170;28;20120;-61
2023/05/21 09:57:43;;;;;;;16.30;10.95;;;;;;;;;;5069389;28;20037;-62
2023/05/21 10:00:17;;;;;;;15.00;11.65;;;;;;;;;;5070021;28;20068;-61
2023/05/21 10:02:55;;;;;;;16.65;11.25;;;;;;;;;;5070039;28;20055;-61
2023/05/21 10:05:25;;;;;;;15.63;11.57;;;;;;;;;;5071851;28;20384;-61
2023/05/21 10:07:52;;;;;;;19.25;11.30;;;;;;;;;;5068232;28;20473;-61
2023/05/21 10:10:24;;;;;;;13.23;11.48;;;;;;;;;;5071906;28;20306;-61
2023/05/21 10:12:58;;;;;;;14.20;10.75;;;;;;;;;;5071031;28;20089;-61
2023/05/21 10:15:25;;;;;;;15.27;10.88;;;;;;;;;;5072021;28;20028;-61
2023/05/21 10:17:52;;;;;;;16.50;11.32;;;;;;;;;;5071128;28;20025;-61
2023/05/21 10:20:17;;;;;;;12.65;10.18;;;;;;;;;;5071830;28;20032;-62
2023/05/21 10:22:43;;;;;;;14.23;11.18;;;;;;;;;;5066600;28;20473;-61
2023/05/21 10:25:09;;;;;;;16.17;11.65;;;;;;;;;;5071775;28;20028;-61
2023/05/21 10:27:36;;;;;;;15.30;11.15;;;;;;;;;;5070244;28;20028;-61
2023/05/21 10:30:04;;;;;;;14.48;11.27;;;;;;;;;;5071076;28;20107;-63
2023/05/21 10:32:30;;;;;;;14.45;11.90;;;;;;;;;;5070283;28;20036;-62
2023/05/21 10:34:57;;;;;;;15.23;11.25;;;;;;;;;;5070569;28;20124;-61
2023/05/21 10:37:25;;;;;;;17.30;11.05;;;;;;;;;;5074531;28;20039;-61
2023/05/21 10:39:51;;;;;;;13.50;10.13;;;;;;;;;;5074663;28;20060;-61
2023/05/21 10:42:39;;;;;;;12.98;10.35;;;;;;;;;;5071544;28;20029;-60
2023/05/21 10:45:31;;;;;;;13.80;11.00;;;;;;;;;;5064975;28;20041;-62
2023/05/21 10:48:25;;;;;;;14.55;10.85;;;;;;;;;;5074846;28;20029;-60
2023/05/21 10:51:15;;;;;;;14.93;10.50;;;;;;;;;;5074395;28;20038;-60
2023/05/21 10:54:02;;;;;;;13.57;10.68;;;;;;;;;;5074803;28;20150;-60
2023/05/21 10:56:37;;;;;;;13.02;10.48;;;;;;;;;;5075316;28;20055;-61
2023/05/21 10:59:24;;;;;;;13.32;10.60;;;;;;;;;;5071817;28;20423;-60
2023/05/21 11:01:55;;;;;;;13.77;11.00;;;;;;;;;;5074215;28;20111;-60
2023/05/21 11:04:22;;;;;;;13.00;10.60;;;;;;;;;;5075470;28;20072;-60
2023/05/21 11:06:48;;;;;;;13.05;10.68;;;;;;;;;;5074319;28;20032;-60
2023/05/21 11:09:14;;;;;;;19.98;11.45;;;;;;;;;;5075157;28;20028;-61
2023/05/21 11:11:43;;;;;;;13.98;11.52;;;;;;;;;;5074407;28;20059;-60
2023/05/21 11:14:30;;;;;;;15.18;10.88;;;;;;;;;;5071279;28;20115;-60
2023/05/21 11:16:57;;;;;;;14.60;10.57;;;;;;;;;;5052809;28;20024;-60
2023/05/21 11:19:32;;;;;;;13.73;11.07;;;;;;;;;;5053743;28;20104;-61
2023/05/21 11:21:58;;;;;;;16.52;11.35;;;;;;;;;;5057567;28;20033;-62
2023/05/21 11:24:24;;;;;;;14.82;11.32;;;;;;;;;;5073264;28;20435;-61
2023/05/21 11:26:51;;;;;;;12.35;10.88;;;;;;;;;;5073915;28;20032;-60
2023/05/21 11:29:17;;;;;;;14.70;11.20;;;;;;;;;;5074881;28;20029;-60
2023/05/21 11:31:47;;;;;;;12.18;10.75;;;;;;;;;;5072401;28;20039;-61
2023/05/21 11:34:14;;;;;;;13.85;11.35;;;;;;;;;;5074644;28;20415;-60
2023/05/21 11:36:42;;;;;;;14.23;11.30;;;;;;;;;;5074301;28;20033;-60
2023/05/21 11:39:21;;;;;;;13.48;10.75;;;;;;;;;;5073826;28;20055;-62
2023/05/21 11:41:57;;;;;;;16.60;10.93;;;;;;;;;;5072629;28;20040;-60
2023/05/21 11:44:46;;;;;;;12.88;10.90;;;;;;;;;;5074879;28;20048;-62
2023/05/21 11:47:17;;;;;;;14.32;10.52;;;;;;;;;;5074167;28;20086;-61
2023/05/21 11:49:43;;;;;;;14.27;10.55;;;;;;;;;;5073665;28;20539;-60
2023/05/21 11:52:10;;;;;;;14.38;11.13;;;;;;;;;;5074306;28;20056;-61
2023/05/21 11:54:45;;;;;;;12.93;10.95;;;;;;;;;;5074513;28;20032;-61
2023/05/21 11:57:13;;;;;;;13.52;11.18;;;;;;;;;;5070437;28;20041;-61
2023/05/21 11:59:40;;;;;;;16.13;10.85;;;;;;;;;;5069536;28;20028;-61
2023/05/21 12:02:06;;;;;;;17.30;11.35;;;;;;;;;;5053537;28;20040;-61
2023/05/21 12:04:36;;;;;;;15.23;11.57;;;;;;;;;;5053008;28;20460;-61
2023/05/21 12:07:07;;;;;;;15.10;11.35;;;;;;;;;;5052024;28;20180;-61
2023/05/21 12:09:40;;;;;;;14.02;11.93;;;;;;;;;;5053937;28;20067;-61
2023/05/21 12:12:10;;;;;;;15.18;10.98;;;;;;;;;;5053161;28;20075;-61
2023/05/21 12:14:36;;;;;;;15.07;11.90;;;;;;;;;;5055729;28;20036;-61
2023/05/21 12:17:09;;;;;;;13.52;11.30;;;;;;;;;;5073009;28;20118;-61
2023/05/21 12:19:35;;;;;;;16.33;11.60;;;;;;;;;;5072516;28;20487;-61
2023/05/21 12:22:05;;;;;;;15.02;11.65;;;;;;;;;;5071975;28;20043;-60
2023/05/21 12:24:31;;;;;;;14.05;11.55;;;;;;;;;;5073871;28;20033;-61
2023/05/21 12:27:01;;;;;;;13.52;10.48;;;;;;;;;;5072904;28;20044;-61
2023/05/21 12:29:28;;;;;;;13.25;11.00;;;;;;;;;;5073585;28;20032;-61
2023/05/21 12:31:58;;;;;;;13.93;10.75;;;;;;;;;;5072814;28;20077;-61
2023/05/21 12:34:44;;;;;;;14.10;11.18;;;;;;;;;;5073495;28;20468;-62
2023/05/21 12:37:30;;;;;;;15.85;10.88;;;;;;;;;;5070489;28;20122;-61
2023/05/21 12:39:58;;;;;;;12.57;10.63;;;;;;;;;;5072624;28;20048;-61
2023/05/21 12:42:34;;;;;;;12.55;10.13;;;;;;;;;;5073063;28;20111;-62
2023/05/21 12:45:09;;;;;;;15.32;10.50;;;;;;;;;;5072713;28;20032;-61
2023/05/21 12:47:35;;;;;;;13.20;10.15;;;;;;;;;;5073302;28;20485;-61
2023/05/21 12:50:03;;;;;;;11.43;10.15;;;;;;;;;;5070637;28;20058;-61
2023/05/21 12:52:31;;;;;;;12.07;10.45;;;;;;;;;;5073180;28;20025;-61
2023/05/21 12:54:57;;;;;;;14.10;10.23;;;;;;;;;;5072463;28;20035;-61
2023/05/21 12:57:34;;;;;;;12.15;9.18;;;;;;;;;;5073001;28;20032;-61
2023/05/21 13:00:00;;;;;;;13.35;9.55;;;;;;;;;;5071523;28;20388;-61
2023/05/21 13:02:30;;;;;;;12.55;10.20;;;;;;;;;;5072953;28;20115;-61
2023/05/21 13:04:56;;;;;;;12.93;11.00;;;;;;;;;;5069251;28;20062;-61
2023/05/21 13:07:23;;;;;;;11.07;9.70;;;;;;;;;;5072914;28;20456;-62
2023/05/21 13:09:51;;;;;;;13.18;10.18;;;;;;;;;;5072121;28;20024;-61
2023/05/21 13:12:27;;;;;;;12.32;9.10;;;;;;;;;;5072648;28;20035;-61
2023/05/21 13:14:57;;;;;;;10.77;9.68;;;;;;;;;;5072123;28;20028;-61
2023/05/21 13:17:23;;;;;;;14.73;10.23;;;;;;;;;;5071509;28;20036;-61
2023/05/21 13:20:07;;;;;;;11.70;9.43;;;;;;;;;;5068877;28;20076;-61
2023/05/21 13:22:34;;;;;;;12.55;10.23;;;;;;;;;;5052624;28;20036;-61
2023/05/21 13:25:00;;;;;;;13.25;10.68;;;;;;;;;;5051847;28;20086;-60
2023/05/21 13:27:26;;;;;;;11.70;9.95;;;;;;;;;;5052623;28;20083;-61
2023/05/21 13:29:51;;;;;;;12.23;9.82;;;;;;;;;;5050454;28;20405;-60
2023/05/21 13:32:17;;;;;;;11.70;10.27;;;;;;;;;;5052366;28;20070;-61
2023/05/21 13:34:43;;;;;;;13.68;10.52;;;;;;;;;;5052542;28;20120;-61
2023/05/21 13:37:08;;;;;;;16.33;10.45;;;;;;;;;;5068584;28;20155;-61
2023/05/21 13:39:33;;;;;;;13.20;9.95;;;;;;;;;;5065213;28;20127;-61
2023/05/21 13:41:59;;;;;;;12.75;9.77;;;;;;;;;;5066421;28;20059;-60
2023/05/21 13:44:24;;;;;;;11.60;10.38;;;;;;;;;;5067735;28;20040;-61
2023/05/21 13:46:50;;;;;;;16.67;10.20;;;;;;;;;;5051781;28;20036;-62
2023/05/21 13:49:15;;;;;;;13.48;10.25;;;;;;;;;;5051727;28;20033;-60
2023/05/21 13:51:41;;;;;;;13.13;10.35;;;;;;;;;;5052197;28;20056;-59
2023/05/21 13:54:06;;;;;;;12.48;9.73;;;;;;;;;;5051201;28;20108;-60
2023/05/21 13:56:32;;;;;;;10.90;9.52;;;;;;;;;;5052402;28;20351;-60
2023/05/21 13:58:58;;;;;;;12.43;9.73;;;;;;;;;;5054433;28;20499;-61
2023/05/21 14:01:23;;;;;;;12.98;10.57;;;;;;;;;;5070586;28;20032;-60
2023/05/21 14:03:49;;;;;;;11.73;9.52;;;;;;;;;;5066352;28;20028;-63
2023/05/21 14:06:14;;;;;;;11.77;9.13;;;;;;;;;;5069989;28;20532;-60
2023/05/21 14:08:41;;;;;;;15.13;9.88;;;;;;;;;;5070420;28;20356;-61
2023/05/21 14:11:06;;;;;;;11.27;9.40;;;;;;;;;;5065924;28;20235;-60
2023/05/21 14:13:32;;;;;;;12.25;9.43;;;;;;;;;;5071731;28;20338;-60
2023/05/21 14:15:57;;;;;;;10.73;9.60;;;;;;;;;;5069765;28;20043;-60
2023/05/21 14:18:23;;;;;;;12.05;9.73;;;;;;;;;;5071340;28;20035;-60
2023/05/21 14:20:48;;;;;;;10.00;8.90;;;;;;;;;;5067143;28;20036;-62
2023/05/21 14:23:14;;;;;;;11.13;8.82;;;;;;;;;;5070716;28;20037;-59
2023/05/21 14:25:41;;;;;;;12.05;9.50;;;;;;;;;;5071771;28;20032;-60
2023/05/21 14:28:06;;;;;;;11.43;9.10;;;;;;;;;;5070977;28;20078;-60
2023/05/21 14:30:32;;;;;;;12.40;9.35;;;;;;;;;;5071743;28;20033;-60